Terminal Aerodrome Forecast
Issued by NWS

Home | Current Version | Previous Version | Text Only | Print | Product List | Glossary On
Versions: 1 2 3 4 5 6 7 8 9 10 11 12 13 14 15 16 17 18
000
FTUS46 KSEW 180000 AAA
TAFHQM
TAF AMD
KHQM 180034Z 1801/1824 VRB03KT P6SM -SHRA OVC070
      TEMPO 1801/1803 2SM +RA
     FM180300 VRB03KT 6SM -RA BR SCT030 OVC050
     FM180600 19005KT 6SM -RA BR BKN030 OVC080
     FM181200 19005KT 4SM BR SCT012 OVC020
     FM181800 20006KT P6SM OVC025=

USA.gov is the U.S. government's official web portal to all federal, state and local government web resources and services.